sensor_id;sensor_type;location;lat;lon;timestamp;pressure;altitude;pressure_sealevel;temperature;humidity
29379;BME280;16362;47.202;15.258;2022-07-23T00:01:23;96214.72;;;20.52;96.33
29379;BME280;16362;47.202;15.258;2022-07-23T00:03:53;96210.38;;;20.51;97.03
29379;BME280;16362;47.202;15.258;2022-07-23T00:06:22;96206.25;;;20.48;97.24
29379;BME280;16362;47.202;15.258;2022-07-23T00:08:49;96206.97;;;20.44;96.99
29379;BME280;16362;47.202;15.258;2022-07-23T00:11:16;96200.38;;;20.40;97.17
29379;BME280;16362;47.202;15.258;2022-07-23T00:13:43;96197.06;;;20.38;97.44
29379;BME280;16362;47.202;15.258;2022-07-23T00:16:10;96190.03;;;20.36;97.69
29379;BME280;16362;47.202;15.258;2022-07-23T00:18:37;96195.09;;;20.33;97.70
29379;BME280;16362;47.202;15.258;2022-07-23T00:21:04;96191.44;;;20.27;97.37
29379;BME280;16362;47.202;15.258;2022-07-23T00:23:31;96195.69;;;20.23;97.67
29379;BME280;16362;47.202;15.258;2022-07-23T00:25:58;96202.16;;;20.22;97.50
29379;BME280;16362;47.202;15.258;2022-07-23T00:28:25;96203.81;;;20.23;97.78
29379;BME280;16362;47.202;15.258;2022-07-23T00:30:51;96212.75;;;20.24;98.19
29379;BME280;16362;47.202;15.258;2022-07-23T00:33:19;96213.81;;;20.23;98.14
29379;BME280;16362;47.202;15.258;2022-07-23T00:35:46;96207.00;;;20.20;97.91
29379;BME280;16362;47.202;15.258;2022-07-23T00:38:13;96202.97;;;20.23;97.96
29379;BME280;16362;47.202;15.258;2022-07-23T00:40:39;96208.63;;;20.21;97.78
29379;BME280;16362;47.202;15.258;2022-07-23T00:43:07;96203.81;;;20.23;98.16
29379;BME280;16362;47.202;15.258;2022-07-23T00:45:34;96206.53;;;20.23;97.91
29379;BME280;16362;47.202;15.258;2022-07-23T00:48:01;96221.13;;;20.22;97.74
29379;BME280;16362;47.202;15.258;2022-07-23T00:50:29;96217.38;;;20.23;98.51
29379;BME280;16362;47.202;15.258;2022-07-23T00:52:56;96211.94;;;20.23;99.12
29379;BME280;16362;47.202;15.258;2022-07-23T00:55:23;96212.41;;;20.20;98.61
29379;BME280;16362;47.202;15.258;2022-07-23T00:57:50;96209.47;;;20.22;99.24
29379;BME280;16362;47.202;15.258;2022-07-23T01:01:32;96217.00;;;20.19;99.83
29379;BME280;16362;47.202;15.258;2022-07-23T01:03:58;96222.66;;;20.18;99.75
29379;BME280;16362;47.202;15.258;2022-07-23T01:06:25;96213.72;;;20.17;99.74
29379;BME280;16362;47.202;15.258;2022-07-23T01:08:54;96208.06;;;20.19;99.41
29379;BME280;16362;47.202;15.258;2022-07-23T01:11:23;96206.66;;;20.16;99.40
29379;BME280;16362;47.202;15.258;2022-07-23T01:13:50;96201.47;;;20.15;99.77
29379;BME280;16362;47.202;15.258;2022-07-23T01:16:16;96192.50;;;20.14;99.99
29379;BME280;16362;47.202;15.258;2022-07-23T01:18:57;96204.63;;;20.12;99.30
29379;BME280;16362;47.202;15.258;2022-07-23T01:21:24;96203.59;;;20.13;99.79
29379;BME280;16362;47.202;15.258;2022-07-23T01:23:51;96195.47;;;20.13;99.96
29379;BME280;16362;47.202;15.258;2022-07-23T01:26:18;96206.19;;;20.08;99.55
29379;BME280;16362;47.202;15.258;2022-07-23T01:30:03;96195.25;;;20.02;99.92
29379;BME280;16362;47.202;15.258;2022-07-23T01:32:30;96192.41;;;19.97;99.98
29379;BME280;16362;47.202;15.258;2022-07-23T01:34:57;96189.72;;;19.97;100.00
29379;BME280;16362;47.202;15.258;2022-07-23T01:37:23;96183.69;;;19.95;100.00
29379;BME280;16362;47.202;15.258;2022-07-23T01:39:50;96181.22;;;19.94;100.00
29379;BME280;16362;47.202;15.258;2022-07-23T01:42:17;96189.00;;;19.90;100.00
29379;BME280;16362;47.202;15.258;2022-07-23T01:44:45;96185.22;;;19.91;100.00
29379;BME280;16362;47.202;15.258;2022-07-23T01:47:12;96182.75;;;19.90;100.00
29379;BME280;16362;47.202;15.258;2022-07-23T01:49:39;96186.75;;;19.87;100.00
29379;BME280;16362;47.202;15.258;2022-07-23T01:52:05;96183.25;;;19.87;100.00
29379;BME280;16362;47.202;15.258;2022-07-23T01:54:35;96192.50;;;19.79;100.00
29379;BME280;16362;47.202;15.258;2022-07-23T01:57:02;96182.16;;;19.76;100.00
29379;BME280;16362;47.202;15.258;2022-07-23T01:59:30;96176.38;;;19.72;100.00
29379;BME280;16362;47.202;15.258;2022-07-23T02:01:57;96184.13;;;19.68;100.00
29379;BME280;16362;47.202;15.258;2022-07-23T02:04:24;96178.13;;;19.66;100.00
29379;BME280;16362;47.202;15.258;2022-07-23T02:06:52;96181.31;;;19.63;100.00
29379;BME280;16362;47.202;15.258;2022-07-23T02:09:19;96183.91;;;19.58;100.00
29379;BME280;16362;47.202;15.258;2022-07-23T02:11:46;96194.72;;;19.58;100.00
29379;BME280;16362;47.202;15.258;2022-07-23T02:14:13;96185.06;;;19.50;100.00
29379;BME280;16362;47.202;15.258;2022-07-23T02:16:39;96179.97;;;19.42;100.00
29379;BME280;16362;47.202;15.258;2022-07-23T02:19:06;96178.81;;;19.38;100.00
29379;BME280;16362;47.202;15.258;2022-07-23T02:21:33;96182.56;;;19.37;100.00
29379;BME280;16362;47.202;15.258;2022-07-23T02:24:00;96173.63;;;19.37;100.00
29379;BME280;16362;47.202;15.258;2022-07-23T02:26:26;96169.75;;;19.32;100.00
29379;BME280;16362;47.202;15.258;2022-07-23T02:28:53;96178.00;;;19.38;100.00
29379;BME280;16362;47.202;15.258;2022-07-23T02:31:20;96178.19;;;19.36;100.00
29379;BME280;16362;47.202;15.258;2022-07-23T02:33:47;96173.38;;;19.38;100.00
29379;BME280;16362;47.202;15.258;2022-07-23T02:36:14;96166.09;;;19.39;100.00
29379;BME280;16362;47.202;15.258;2022-07-23T02:38:40;96164.22;;;19.39;100.00
29379;BME280;16362;47.202;15.258;2022-07-23T02:41:07;96169.50;;;19.34;100.00
29379;BME280;16362;47.202;15.258;2022-07-23T02:43:35;96167.03;;;19.32;100.00
29379;BME280;16362;47.202;15.258;2022-07-23T02:46:02;96167.28;;;19.31;100.00
29379;BME280;16362;47.202;15.258;2022-07-23T02:48:28;96168.56;;;19.28;100.00
29379;BME280;16362;47.202;15.258;2022-07-23T02:50:55;96169.38;;;19.29;100.00
29379;BME280;16362;47.202;15.258;2022-07-23T02:53:23;96161.50;;;19.27;100.00
29379;BME280;16362;47.202;15.258;2022-07-23T02:55:50;96169.22;;;19.24;100.00
29379;BME280;16362;47.202;15.258;2022-07-23T02:58:17;96166.19;;;19.20;100.00
29379;BME280;16362;47.202;15.258;2022-07-23T03:00:44;96164.16;;;19.15;100.00
29379;BME280;16362;47.202;15.258;2022-07-23T03:03:10;96159.31;;;19.06;100.00
29379;BME280;16362;47.202;15.258;2022-07-23T03:05:38;96154.97;;;19.05;100.00
29379;BME280;16362;47.202;15.258;2022-07-23T03:08:04;96158.28;;;19.07;100.00
29379;BME280;16362;47.202;15.258;2022-07-23T03:10:31;96151.78;;;19.08;100.00
29379;BME280;16362;47.202;15.258;2022-07-23T03:12:58;96146.03;;;19.04;100.00
29379;BME280;16362;47.202;15.258;2022-07-23T03:15:25;96154.16;;;19.04;100.00
29379;BME280;16362;47.202;15.258;2022-07-23T03:17:51;96149.41;;;18.99;100.00
29379;BME280;16362;47.202;15.258;2022-07-23T03:20:18;96149.66;;;18.98;100.00
29379;BME280;16362;47.202;15.258;2022-07-23T03:22:45;96139.53;;;18.93;100.00
29379;BME280;16362;47.202;15.258;2022-07-23T03:25:11;96154.56;;;18.89;100.00
29379;BME280;16362;47.202;15.258;2022-07-23T03:27:38;96151.47;;;18.85;100.00
29379;BME280;16362;47.202;15.258;2022-07-23T03:30:05;96144.16;;;18.86;100.00
29379;BME280;16362;47.202;15.258;2022-07-23T03:32:32;96153.59;;;18.83;100.00
29379;BME280;16362;47.202;15.258;2022-07-23T03:34:59;96150.88;;;18.83;100.00
29379;BME280;16362;47.202;15.258;2022-07-23T03:37:26;96147.34;;;18.83;100.00
29379;BME280;16362;47.202;15.258;2022-07-23T03:40:18;96152.59;;;18.78;100.00
29379;BME280;16362;47.202;15.258;2022-07-23T03:45:24;96160.22;;;18.69;100.00
29379;BME280;16362;47.202;15.258;2022-07-23T03:47:51;96167.13;;;18.65;100.00
29379;BME280;16362;47.202;15.258;2022-07-23T03:50:18;96163.00;;;18.62;100.00
29379;BME280;16362;47.202;15.258;2022-07-23T03:52:45;96172.41;;;18.60;100.00
29379;BME280;16362;47.202;15.258;2022-07-23T03:55:25;96172.47;;;18.53;100.00
29379;BME280;16362;47.202;15.258;2022-07-23T03:57:52;96179.38;;;18.49;100.00
29379;BME280;16362;47.202;15.258;2022-07-23T04:00:19;96181.28;;;18.48;100.00
29379;BME280;16362;47.202;15.258;2022-07-23T04:02:45;96182.56;;;18.46;100.00
29379;BME280;16362;47.202;15.258;2022-07-23T04:05:12;96185.84;;;18.48;100.00
29379;BME280;16362;47.202;15.258;2022-07-23T04:07:39;96188.09;;;18.51;100.00
29379;BME280;16362;47.202;15.258;2022-07-23T04:10:07;96188.69;;;18.53;100.00
29379;BME280;16362;47.202;15.258;2022-07-23T04:12:34;96182.47;;;18.52;100.00
29379;BME280;16362;47.202;15.258;2022-07-23T04:15:01;96184.94;;;18.54;100.00
29379;BME280;16362;47.202;15.258;2022-07-23T04:17:27;96185.16;;;18.52;100.00
29379;BME280;16362;47.202;15.258;2022-07-23T04:19:55;96188.69;;;18.53;100.00
29379;BME280;16362;47.202;15.258;2022-07-23T04:22:21;96191.38;;;18.53;100.00
29379;BME280;16362;47.202;15.258;2022-07-23T04:24:48;96188.22;;;18.56;100.00
29379;BME280;16362;47.202;15.258;2022-07-23T04:27:16;96189.41;;;18.60;100.00
29379;BME280;16362;47.202;15.258;2022-07-23T04:29:42;96186.28;;;18.63;100.00
29379;BME280;16362;47.202;15.258;2022-07-23T04:32:09;96179.59;;;18.66;100.00
29379;BME280;16362;47.202;15.258;2022-07-23T04:34:36;96171.25;;;18.67;100.00
29379;BME280;16362;47.202;15.258;2022-07-23T04:37:03;96175.16;;;18.72;100.00
29379;BME280;16362;47.202;15.258;2022-07-23T04:39:29;96175.16;;;18.72;100.00
29379;BME280;16362;47.202;15.258;2022-07-23T04:41:57;96170.09;;;18.75;100.00
29379;BME280;16362;47.202;15.258;2022-07-23T04:44:23;96168.81;;;18.78;100.00
29379;BME280;16362;47.202;15.258;2022-07-23T04:46:50;96171.66;;;18.83;100.00
29379;BME280;16362;47.202;15.258;2022-07-23T04:49:19;96169.19;;;18.81;100.00
29379;BME280;16362;47.202;15.258;2022-07-23T04:51:46;96170.00;;;18.82;100.00
29379;BME280;16362;47.202;15.258;2022-07-23T04:54:13;96172.50;;;18.83;100.00
29379;BME280;16362;47.202;15.258;2022-07-23T04:56:39;96179.31;;;18.86;100.00
29379;BME280;16362;47.202;15.258;2022-07-23T04:59:06;96180.31;;;18.92;100.00
29379;BME280;16362;47.202;15.258;2022-07-23T05:01:33;96173.63;;;18.94;100.00
29379;BME280;16362;47.202;15.258;2022-07-23T05:03:59;96172.13;;;18.98;100.00
29379;BME280;16362;47.202;15.258;2022-07-23T05:06:26;96171.41;;;19.03;100.00
29379;BME280;16362;47.202;15.258;2022-07-23T05:08:53;96171.78;;;19.07;100.00
29379;BME280;16362;47.202;15.258;2022-07-23T05:11:21;96177.09;;;19.13;100.00
29379;BME280;16362;47.202;15.258;2022-07-23T05:13:52;96176.09;;;19.38;100.00
29379;BME280;16362;47.202;15.258;2022-07-23T05:16:19;96171.47;;;19.81;100.00
29379;BME280;16362;47.202;15.258;2022-07-23T05:18:46;96169.41;;;20.24;100.00
29379;BME280;16362;47.202;15.258;2022-07-23T05:21:13;96166.16;;;20.62;100.00
29379;BME280;16362;47.202;15.258;2022-07-23T05:23:39;96160.13;;;21.01;98.86
29379;BME280;16362;47.202;15.258;2022-07-23T05:26:06;96160.41;;;21.33;96.04
29379;BME280;16362;47.202;15.258;2022-07-23T05:28:33;96162.34;;;21.67;95.78
29379;BME280;16362;47.202;15.258;2022-07-23T05:31:00;96160.78;;;21.88;92.77
29379;BME280;16362;47.202;15.258;2022-07-23T05:33:26;96155.69;;;22.14;91.41
29379;BME280;16362;47.202;15.258;2022-07-23T05:35:53;96158.28;;;22.43;90.32
29379;BME280;16362;47.202;15.258;2022-07-23T05:38:20;96157.50;;;22.69;88.18
29379;BME280;16362;47.202;15.258;2022-07-23T05:40:47;96159.44;;;22.96;87.58
29379;BME280;16362;47.202;15.258;2022-07-23T05:43:13;96160.22;;;23.19;85.48
29379;BME280;16362;47.202;15.258;2022-07-23T05:45:40;96147.84;;;23.33;84.24
29379;BME280;16362;47.202;15.258;2022-07-23T05:48:07;96149.00;;;23.43;84.88
29379;BME280;16362;47.202;15.258;2022-07-23T05:50:34;96142.94;;;23.68;85.37
29379;BME280;16362;47.202;15.258;2022-07-23T05:53:00;96159.69;;;23.87;82.30
29379;BME280;16362;47.202;15.258;2022-07-23T05:55:28;96149.50;;;24.04;81.18
29379;BME280;16362;47.202;15.258;2022-07-23T05:57:58;96152.31;;;24.25;81.20
29379;BME280;16362;47.202;15.258;2022-07-23T06:00:26;96145.31;;;24.45;81.08
29379;BME280;16362;47.202;15.258;2022-07-23T06:02:53;96143.81;;;24.64;80.17
29379;BME280;16362;47.202;15.258;2022-07-23T06:05:21;96146.56;;;24.69;78.38
29379;BME280;16362;47.202;15.258;2022-07-23T06:07:48;96148.75;;;24.88;78.02
29379;BME280;16362;47.202;15.258;2022-07-23T06:10:15;96147.44;;;24.96;76.98
29379;BME280;16362;47.202;15.258;2022-07-23T06:12:42;96147.72;;;25.15;77.92
29379;BME280;16362;47.202;15.258;2022-07-23T06:15:09;96144.75;;;25.27;77.04
29379;BME280;16362;47.202;15.258;2022-07-23T06:17:37;96148.06;;;25.44;77.11
29379;BME280;16362;47.202;15.258;2022-07-23T06:20:09;96142.03;;;25.68;76.64
29379;BME280;16362;47.202;15.258;2022-07-23T06:22:36;96151.63;;;25.70;74.83
29379;BME280;16362;47.202;15.258;2022-07-23T06:25:03;96156.53;;;25.84;77.23
29379;BME280;16362;47.202;15.258;2022-07-23T06:27:37;96161.41;;;26.13;77.44
29379;BME280;16362;47.202;15.258;2022-07-23T06:30:05;96158.91;;;26.37;77.33
29379;BME280;16362;47.202;15.258;2022-07-23T06:32:32;96162.91;;;26.65;73.90
29379;BME280;16362;47.202;15.258;2022-07-23T06:34:58;96165.31;;;26.87;73.20
29379;BME280;16362;47.202;15.258;2022-07-23T06:37:25;96163.22;;;27.14;69.10
29379;BME280;16362;47.202;15.258;2022-07-23T06:39:52;96161.19;;;27.40;66.27
29379;BME280;16362;47.202;15.258;2022-07-23T06:42:19;96161.78;;;27.66;63.72
29379;BME280;16362;47.202;15.258;2022-07-23T06:44:46;96164.13;;;27.83;61.65
29379;BME280;16362;47.202;15.258;2022-07-23T06:47:13;96162.28;;;28.08;60.60
29379;BME280;16362;47.202;15.258;2022-07-23T06:49:39;96163.09;;;28.09;63.22
29379;BME280;16362;47.202;15.258;2022-07-23T06:52:07;96162.44;;;28.17;61.84
29379;BME280;16362;47.202;15.258;2022-07-23T06:54:34;96162.59;;;28.31;62.78
29379;BME280;16362;47.202;15.258;2022-07-23T06:57:01;96163.41;;;28.31;58.69
29379;BME280;16362;47.202;15.258;2022-07-23T06:59:28;96173.34;;;28.51;61.02
29379;BME280;16362;47.202;15.258;2022-07-23T07:01:54;96169.91;;;28.65;60.00
29379;BME280;16362;47.202;15.258;2022-07-23T07:04:21;96177.94;;;28.56;58.85
29379;BME280;16362;47.202;15.258;2022-07-23T07:06:48;96174.19;;;28.47;60.16
29379;BME280;16362;47.202;15.258;2022-07-23T07:09:15;96185.59;;;28.35;61.27
29379;BME280;16362;47.202;15.258;2022-07-23T07:11:41;96174.31;;;28.36;63.75
29379;BME280;16362;47.202;15.258;2022-07-23T07:14:08;96177.53;;;28.44;63.29
29379;BME280;16362;47.202;15.258;2022-07-23T07:16:35;96186.88;;;28.43;67.32
29379;BME280;16362;47.202;15.258;2022-07-23T07:19:02;96181.47;;;28.37;63.35
29379;BME280;16362;47.202;15.258;2022-07-23T07:21:29;96173.69;;;28.45;61.64
29379;BME280;16362;47.202;15.258;2022-07-23T07:23:56;96177.38;;;28.35;64.19
29379;BME280;16362;47.202;15.258;2022-07-23T07:26:23;96179.22;;;28.39;67.88
29379;BME280;16362;47.202;15.258;2022-07-23T07:28:50;96173.63;;;28.50;63.79
29379;BME280;16362;47.202;15.258;2022-07-23T07:31:17;96180.94;;;28.60;62.15
29379;BME280;16362;47.202;15.258;2022-07-23T07:33:43;96185.69;;;28.78;61.50
29379;BME280;16362;47.202;15.258;2022-07-23T07:36:10;96184.06;;;28.96;57.57
29379;BME280;16362;47.202;15.258;2022-07-23T07:38:44;96181.78;;;29.22;56.20
29379;BME280;16362;47.202;15.258;2022-07-23T07:41:10;96183.22;;;29.58;53.86
29379;BME280;16362;47.202;15.258;2022-07-23T07:43:37;96177.16;;;29.75;54.39
29379;BME280;16362;47.202;15.258;2022-07-23T07:46:04;96175.63;;;29.69;50.46
29379;BME280;16362;47.202;15.258;2022-07-23T07:48:31;96169.97;;;29.60;52.14
29379;BME280;16362;47.202;15.258;2022-07-23T07:50:58;96173.00;;;29.78;51.79
29379;BME280;16362;47.202;15.258;2022-07-23T07:53:25;96170.50;;;29.62;48.28
29379;BME280;16362;47.202;15.258;2022-07-23T07:55:52;96179.22;;;29.83;54.32
29379;BME280;16362;47.202;15.258;2022-07-23T07:58:18;96182.81;;;30.17;50.76
29379;BME280;16362;47.202;15.258;2022-07-23T08:00:45;96179.88;;;30.41;47.10
29379;BME280;16362;47.202;15.258;2022-07-23T08:03:12;96177.53;;;30.34;49.71
29379;BME280;16362;47.202;15.258;2022-07-23T08:05:39;96190.09;;;30.40;49.39
29379;BME280;16362;47.202;15.258;2022-07-23T08:08:06;96184.72;;;30.49;43.02
29379;BME280;16362;47.202;15.258;2022-07-23T08:10:33;96189.41;;;30.49;45.34
29379;BME280;16362;47.202;15.258;2022-07-23T08:12:59;96177.78;;;30.52;44.42
29379;BME280;16362;47.202;15.258;2022-07-23T08:15:29;96189.09;;;30.50;46.16
29379;BME280;16362;47.202;15.258;2022-07-23T08:17:56;96194.44;;;30.28;46.18
29379;BME280;16362;47.202;15.258;2022-07-23T08:20:24;96189.81;;;30.09;46.23
29379;BME280;16362;47.202;15.258;2022-07-23T08:22:56;96190.84;;;30.13;49.04
29379;BME280;16362;47.202;15.258;2022-07-23T08:25:26;96186.88;;;30.19;47.10
29379;BME280;16362;47.202;15.258;2022-07-23T08:27:54;96194.13;;;30.29;45.71
29379;BME280;16362;47.202;15.258;2022-07-23T08:30:21;96197.59;;;30.35;46.53
29379;BME280;16362;47.202;15.258;2022-07-23T08:32:53;96197.66;;;30.49;50.52
29379;BME280;16362;47.202;15.258;2022-07-23T08:35:34;96192.72;;;30.32;44.33
29379;BME280;16362;47.202;15.258;2022-07-23T08:38:05;96182.59;;;30.13;45.12
29379;BME280;16362;47.202;15.258;2022-07-23T08:40:34;96186.66;;;30.16;48.79
29379;BME280;16362;47.202;15.258;2022-07-23T08:43:10;96181.53;;;29.95;44.64
29379;BME280;16362;47.202;15.258;2022-07-23T08:45:42;96180.94;;;29.79;46.81
29379;BME280;16362;47.202;15.258;2022-07-23T08:48:17;96175.91;;;29.67;47.90
29379;BME280;16362;47.202;15.258;2022-07-23T08:50:51;96179.59;;;29.77;46.64
29379;BME280;16362;47.202;15.258;2022-07-23T08:53:18;96181.59;;;29.57;44.64
29379;BME280;16362;47.202;15.258;2022-07-23T08:55:51;96188.13;;;29.61;47.70
29379;BME280;16362;47.202;15.258;2022-07-23T08:58:19;96197.41;;;29.65;50.72
29379;BME280;16362;47.202;15.258;2022-07-23T09:00:53;96196.28;;;29.66;46.23
29379;BME280;16362;47.202;15.258;2022-07-23T09:03:23;96195.44;;;29.66;44.86
29379;BME280;16362;47.202;15.258;2022-07-23T09:05:50;96197.16;;;29.62;47.27
29379;BME280;16362;47.202;15.258;2022-07-23T09:08:20;96190.88;;;29.61;46.81
29379;BME280;16362;47.202;15.258;2022-07-23T09:10:55;96188.19;;;29.56;51.59
29379;BME280;16362;47.202;15.258;2022-07-23T09:16:13;96184.78;;;29.45;50.58
29379;BME280;16362;47.202;15.258;2022-07-23T09:18:46;96185.81;;;29.49;50.59
29379;BME280;16362;47.202;15.258;2022-07-23T09:21:17;96190.22;;;29.50;53.03
29379;BME280;16362;47.202;15.258;2022-07-23T09:24:00;96190.72;;;29.52;50.81
29379;BME280;16362;47.202;15.258;2022-07-23T09:34:33;96200.47;;;29.26;51.99
29379;BME280;16362;47.202;15.258;2022-07-23T09:37:18;96201.91;;;29.18;51.75
29379;BME280;16362;47.202;15.258;2022-07-23T09:39:47;96212.22;;;29.07;51.61
29379;BME280;16362;47.202;15.258;2022-07-23T09:42:24;96211.78;;;29.00;52.33
29379;BME280;16362;47.202;15.258;2022-07-23T09:44:53;96224.56;;;28.85;53.98
29379;BME280;16362;47.202;15.258;2022-07-23T09:47:22;96222.78;;;28.76;55.99
29379;BME280;16362;47.202;15.258;2022-07-23T09:50:00;96224.53;;;28.66;55.77
29379;BME280;16362;47.202;15.258;2022-07-23T09:52:33;96218.53;;;28.59;60.13
29379;BME280;16362;47.202;15.258;2022-07-23T09:55:04;96215.84;;;28.54;58.96
29379;BME280;16362;47.202;15.258;2022-07-23T09:57:32;96219.56;;;28.39;59.81
29379;BME280;16362;47.202;15.258;2022-07-23T10:00:07;96208.66;;;28.34;59.56
29379;BME280;16362;47.202;15.258;2022-07-23T10:02:36;96195.69;;;28.39;61.05
29379;BME280;16362;47.202;15.258;2022-07-23T10:05:04;96169.94;;;28.35;64.09
29379;BME280;16362;47.202;15.258;2022-07-23T10:07:32;96171.94;;;28.30;62.90
29379;BME280;16362;47.202;15.258;2022-07-23T10:10:03;96178.88;;;28.46;63.24
29379;BME280;16362;47.202;15.258;2022-07-23T10:12:30;96171.25;;;28.67;54.94
29379;BME280;16362;47.202;15.258;2022-07-23T10:15:00;96157.78;;;28.90;52.62
29379;BME280;16362;47.202;15.258;2022-07-23T10:17:28;96155.28;;;29.13;53.53
29379;BME280;16362;47.202;15.258;2022-07-23T10:19:55;96161.22;;;29.20;47.39
29379;BME280;16362;47.202;15.258;2022-07-23T10:22:37;96162.13;;;29.34;45.60
29379;BME280;16362;47.202;15.258;2022-07-23T10:25:27;96166.88;;;29.48;48.13
29379;BME280;16362;47.202;15.258;2022-07-23T10:28:40;96169.19;;;29.60;45.43
29379;BME280;16362;47.202;15.258;2022-07-23T10:34:25;96175.44;;;30.59;47.96
29379;BME280;16362;47.202;15.258;2022-07-23T10:37:01;96181.06;;;30.68;44.54
29379;BME280;16362;47.202;15.258;2022-07-23T10:39:34;96182.56;;;30.74;41.50
29379;BME280;16362;47.202;15.258;2022-07-23T10:42:12;96187.56;;;30.72;43.33
29379;BME280;16362;47.202;15.258;2022-07-23T10:44:49;96184.72;;;30.63;38.70
29379;BME280;16362;47.202;15.258;2022-07-23T10:47:28;96180.84;;;30.64;41.63
29379;BME280;16362;47.202;15.258;2022-07-23T10:50:25;96184.19;;;30.89;37.53
29379;BME280;16362;47.202;15.258;2022-07-23T10:53:09;96180.84;;;30.92;39.09
29379;BME280;16362;47.202;15.258;2022-07-23T10:58:05;96173.00;;;31.36;36.07
29379;BME280;16362;47.202;15.258;2022-07-23T11:00:34;96161.22;;;31.44;36.22
29379;BME280;16362;47.202;15.258;2022-07-23T11:03:06;96161.56;;;31.88;34.73
29379;BME280;16362;47.202;15.258;2022-07-23T11:05:49;96156.56;;;31.90;35.21
29379;BME280;16362;47.202;15.258;2022-07-23T11:08:18;96156.00;;;32.02;37.02
29379;BME280;16362;47.202;15.258;2022-07-23T11:10:55;96161.13;;;31.95;35.51
29379;BME280;16362;47.202;15.258;2022-07-23T11:32:23;96142.00;;;32.21;32.35
29379;BME280;16362;47.202;15.258;2022-07-23T11:34:51;96139.09;;;32.26;32.41
29379;BME280;16362;47.202;15.258;2022-07-23T11:37:38;96128.75;;;32.40;32.92
29379;BME280;16362;47.202;15.258;2022-07-23T11:40:16;96135.56;;;32.34;30.33
29379;BME280;16362;47.202;15.258;2022-07-23T11:45:18;96129.06;;;32.07;31.90
29379;BME280;16362;47.202;15.258;2022-07-23T11:47:45;96122.50;;;31.95;32.92
29379;BME280;16362;47.202;15.258;2022-07-23T11:50:11;96122.81;;;31.93;34.60
29379;BME280;16362;47.202;15.258;2022-07-23T11:52:38;96126.09;;;31.95;31.66
29379;BME280;16362;47.202;15.258;2022-07-23T11:55:07;96116.22;;;32.03;31.53
29379;BME280;16362;47.202;15.258;2022-07-23T11:57:39;96117.91;;;32.13;32.63
29379;BME280;16362;47.202;15.258;2022-07-23T12:00:12;96115.13;;;32.13;33.57
29379;BME280;16362;47.202;15.258;2022-07-23T12:02:45;96100.81;;;32.02;33.19
29379;BME280;16362;47.202;15.258;2022-07-23T12:05:17;96108.25;;;32.01;30.82
29379;BME280;16362;47.202;15.258;2022-07-23T12:07:46;96104.84;;;31.73;32.95
29379;BME280;16362;47.202;15.258;2022-07-23T12:10:21;96107.44;;;31.69;36.01
29379;BME280;16362;47.202;15.258;2022-07-23T12:12:50;96101.25;;;31.50;34.11
29379;BME280;16362;47.202;15.258;2022-07-23T12:15:20;96097.78;;;31.35;35.61
29379;BME280;16362;47.202;15.258;2022-07-23T12:17:50;96094.19;;;31.35;32.71
29379;BME280;16362;47.202;15.258;2022-07-23T12:20:25;96097.78;;;31.35;36.01
29379;BME280;16362;47.202;15.258;2022-07-23T12:22:56;96096.63;;;31.36;40.83
29379;BME280;16362;47.202;15.258;2022-07-23T12:25:25;96094.00;;;31.31;38.39
29379;BME280;16362;47.202;15.258;2022-07-23T12:28:09;96088.19;;;31.33;34.07
29379;BME280;16362;47.202;15.258;2022-07-23T12:30:41;96091.91;;;31.14;36.10
29379;BME280;16362;47.202;15.258;2022-07-23T12:33:11;96092.25;;;31.13;34.97
29379;BME280;16362;47.202;15.258;2022-07-23T12:35:41;96089.78;;;31.11;36.25
29379;BME280;16362;47.202;15.258;2022-07-23T12:38:11;96083.28;;;31.30;36.40
29379;BME280;16362;47.202;15.258;2022-07-23T12:40:58;96080.16;;;31.45;35.24
29379;BME280;16362;47.202;15.258;2022-07-23T12:43:36;96068.16;;;31.64;35.21
29379;BME280;16362;47.202;15.258;2022-07-23T12:46:14;96073.50;;;31.69;34.90
29379;BME280;16362;47.202;15.258;2022-07-23T12:51:39;96071.31;;;31.57;35.70
29379;BME280;16362;47.202;15.258;2022-07-23T12:54:12;96072.13;;;31.35;35.82
29379;BME280;16362;47.202;15.258;2022-07-23T12:56:40;96068.31;;;31.22;37.11
29379;BME280;16362;47.202;15.258;2022-07-23T12:59:14;96071.34;;;30.98;37.83
29379;BME280;16362;47.202;15.258;2022-07-23T13:01:54;96073.41;;;30.92;37.41
29379;BME280;16362;47.202;15.258;2022-07-23T13:04:24;96069.56;;;31.16;35.56
29379;BME280;16362;47.202;15.258;2022-07-23T13:06:56;96059.94;;;31.27;34.92
29379;BME280;16362;47.202;15.258;2022-07-23T13:09:32;96053.41;;;31.23;35.90
29379;BME280;16362;47.202;15.258;2022-07-23T13:12:04;96045.41;;;31.13;36.88
29379;BME280;16362;47.202;15.258;2022-07-23T13:14:32;96052.38;;;31.19;36.77
29379;BME280;16362;47.202;15.258;2022-07-23T13:17:00;96050.78;;;31.18;35.65
29379;BME280;16362;47.202;15.258;2022-07-23T13:19:27;96047.94;;;31.09;36.16
29379;BME280;16362;47.202;15.258;2022-07-23T13:21:54;96041.47;;;30.91;37.32
29379;BME280;16362;47.202;15.258;2022-07-23T13:24:21;96035.38;;;30.80;39.04
29379;BME280;16362;47.202;15.258;2022-07-23T13:26:48;96046.81;;;30.73;38.46
29379;BME280;16362;47.202;15.258;2022-07-23T13:29:17;96039.50;;;30.69;38.99
29379;BME280;16362;47.202;15.258;2022-07-23T13:31:45;96043.69;;;30.66;40.09
29379;BME280;16362;47.202;15.258;2022-07-23T13:34:13;96036.91;;;30.72;40.21
29379;BME280;16362;47.202;15.258;2022-07-23T13:36:39;96035.56;;;30.84;39.83
29379;BME280;16362;47.202;15.258;2022-07-23T13:39:06;96023.66;;;30.97;40.34
29379;BME280;16362;47.202;15.258;2022-07-23T13:41:36;96030.63;;;31.09;38.09
29379;BME280;16362;47.202;15.258;2022-07-23T13:44:04;96025.72;;;31.28;39.75